sensor_id;sensor_type;location;lat;lon;timestamp;pressure;altitude;pressure_sealevel;temperature;humidity
79144;BME280;68551;47.484;19.092;2023-05-07T00:02:07;100382.06;;;17.39;69.55
79144;BME280;68551;47.484;19.092;2023-05-07T00:05:11;100370.75;;;17.35;69.45
79144;BME280;68551;47.484;19.092;2023-05-07T00:08:15;100365.53;;;17.39;69.18
79144;BME280;68551;47.484;19.092;2023-05-07T00:11:22;100380.41;;;17.38;70.20
79144;BME280;68551;47.484;19.092;2023-05-07T00:14:25;100369.06;;;17.29;69.44
79144;BME280;68551;47.484;19.092;2023-05-07T00:17:28;100373.47;;;17.25;69.88
79144;BME280;68551;47.484;19.092;2023-05-07T00:20:31;100372.91;;;17.28;69.98
79144;BME280;68551;47.484;19.092;2023-05-07T00:23:37;100373.19;;;17.21;70.39
79144;BME280;68551;47.484;19.092;2023-05-07T00:26:42;100378.34;;;17.08;70.78
79144;BME280;68551;47.484;19.092;2023-05-07T00:29:49;100383.19;;;16.90;71.37
79144;BME280;68551;47.484;19.092;2023-05-07T00:32:53;100385.88;;;16.80;72.00
79144;BME280;68551;47.484;19.092;2023-05-07T00:36:01;100383.41;;;16.79;71.86
79144;BME280;68551;47.484;19.092;2023-05-07T00:39:05;100377.09;;;16.83;72.00
79144;BME280;68551;47.484;19.092;2023-05-07T00:42:08;100367.44;;;16.81;71.84
79144;BME280;68551;47.484;19.092;2023-05-07T00:45:11;100379.31;;;16.86;71.76
79144;BME280;68551;47.484;19.092;2023-05-07T00:48:15;100384.28;;;16.84;71.89
79144;BME280;68551;47.484;19.092;2023-05-07T00:51:20;100381.16;;;16.76;72.11
79144;BME280;68551;47.484;19.092;2023-05-07T00:54:23;100382.78;;;16.72;72.27
79144;BME280;68551;47.484;19.092;2023-05-07T00:57:25;100381.84;;;16.61;72.91
79144;BME280;68551;47.484;19.092;2023-05-07T01:00:30;100391.53;;;16.63;72.70
79144;BME280;68551;47.484;19.092;2023-05-07T01:03:33;100390.44;;;16.64;72.58
79144;BME280;68551;47.484;19.092;2023-05-07T01:06:36;100390.03;;;16.51;72.87
79144;BME280;68551;47.484;19.092;2023-05-07T01:09:39;100387.47;;;16.39;73.44
79144;BME280;68551;47.484;19.092;2023-05-07T01:12:42;100379.22;;;16.39;73.03
79144;BME280;68551;47.484;19.092;2023-05-07T01:15:49;100393.22;;;16.38;73.36
79144;BME280;68551;47.484;19.092;2023-05-07T01:18:54;100389.97;;;16.41;73.33
79144;BME280;68551;47.484;19.092;2023-05-07T01:22:03;100391.81;;;16.35;73.50
79144;BME280;68551;47.484;19.092;2023-05-07T01:25:11;100401.47;;;16.38;73.58
79144;BME280;68551;47.484;19.092;2023-05-07T01:28:18;100403.47;;;16.42;73.35
79144;BME280;68551;47.484;19.092;2023-05-07T01:31:21;100399.00;;;16.36;73.78
79144;BME280;68551;47.484;19.092;2023-05-07T01:34:30;100386.00;;;16.26;73.73
79144;BME280;68551;47.484;19.092;2023-05-07T01:37:36;100399.75;;;16.31;73.95
79144;BME280;68551;47.484;19.092;2023-05-07T01:40:39;100392.66;;;16.36;74.01
79144;BME280;68551;47.484;19.092;2023-05-07T01:43:42;100393.53;;;16.41;73.83
79144;BME280;68551;47.484;19.092;2023-05-07T01:46:47;100398.50;;;16.44;73.64
79144;BME280;68551;47.484;19.092;2023-05-07T01:49:55;100393.25;;;16.43;73.22
79144;BME280;68551;47.484;19.092;2023-05-07T01:52:58;100392.16;;;16.39;73.26
79144;BME280;68551;47.484;19.092;2023-05-07T01:56:05;100397.84;;;16.32;73.45
79144;BME280;68551;47.484;19.092;2023-05-07T01:59:09;100390.34;;;16.22;73.75
79144;BME280;68551;47.484;19.092;2023-05-07T02:02:13;100382.63;;;16.19;73.98
79144;BME280;68551;47.484;19.092;2023-05-07T02:05:18;100370.06;;;16.02;74.46
79144;BME280;68551;47.484;19.092;2023-05-07T02:08:28;100379.69;;;15.99;74.53
79144;BME280;68551;47.484;19.092;2023-05-07T02:11:33;100365.31;;;15.92;74.67
79144;BME280;68551;47.484;19.092;2023-05-07T02:14:43;100364.03;;;16.00;74.17
79144;BME280;68551;47.484;19.092;2023-05-07T02:18:05;100376.47;;;16.07;74.06
79144;BME280;68551;47.484;19.092;2023-05-07T02:21:08;100375.28;;;15.98;74.27
79144;BME280;68551;47.484;19.092;2023-05-07T02:24:11;100357.84;;;15.87;74.54
79144;BME280;68551;47.484;19.092;2023-05-07T02:27:18;100371.31;;;15.89;74.41
79144;BME280;68551;47.484;19.092;2023-05-07T02:30:21;100354.75;;;15.79;74.37
79144;BME280;68551;47.484;19.092;2023-05-07T02:33:29;100365.81;;;15.89;74.80
79144;BME280;68551;47.484;19.092;2023-05-07T02:36:33;100362.00;;;15.90;74.35
79144;BME280;68551;47.484;19.092;2023-05-07T02:39:41;100360.25;;;15.79;75.03
79144;BME280;68551;47.484;19.092;2023-05-07T02:42:51;100366.22;;;15.71;74.84
79144;BME280;68551;47.484;19.092;2023-05-07T02:46:05;100372.97;;;15.63;75.38
79144;BME280;68551;47.484;19.092;2023-05-07T02:49:10;100361.03;;;15.52;75.77
79144;BME280;68551;47.484;19.092;2023-05-07T02:52:13;100369.75;;;15.49;75.95
79144;BME280;68551;47.484;19.092;2023-05-07T02:55:15;100372.91;;;15.36;76.10
79144;BME280;68551;47.484;19.092;2023-05-07T02:58:20;100367.63;;;15.30;76.46
79144;BME280;68551;47.484;19.092;2023-05-07T03:01:25;100378.28;;;15.26;76.42
79144;BME280;68551;47.484;19.092;2023-05-07T03:04:34;100388.44;;;15.25;76.51
79144;BME280;68551;47.484;19.092;2023-05-07T03:07:39;100381.84;;;15.27;76.26
79144;BME280;68551;47.484;19.092;2023-05-07T03:10:42;100375.47;;;15.21;76.44
79144;BME280;68551;47.484;19.092;2023-05-07T03:13:52;100374.69;;;15.25;76.20
79144;BME280;68551;47.484;19.092;2023-05-07T03:16:56;100379.47;;;15.35;76.20
79144;BME280;68551;47.484;19.092;2023-05-07T03:19:58;100378.50;;;15.46;75.72
79144;BME280;68551;47.484;19.092;2023-05-07T03:23:00;100371.81;;;15.59;75.37
79144;BME280;68551;47.484;19.092;2023-05-07T03:26:05;100379.63;;;15.67;74.86
79144;BME280;68551;47.484;19.092;2023-05-07T03:29:12;100378.28;;;15.70;74.75
79144;BME280;68551;47.484;19.092;2023-05-07T03:32:15;100376.09;;;15.72;74.89
79144;BME280;68551;47.484;19.092;2023-05-07T03:35:20;100370.47;;;15.62;75.29
79144;BME280;68551;47.484;19.092;2023-05-07T03:38:22;100372.72;;;15.65;75.07
79144;BME280;68551;47.484;19.092;2023-05-07T03:41:31;100372.72;;;15.65;75.41
79144;BME280;68551;47.484;19.092;2023-05-07T03:44:39;100377.97;;;15.66;75.15
79144;BME280;68551;47.484;19.092;2023-05-07T03:47:46;100386.28;;;15.71;75.19
79144;BME280;68551;47.484;19.092;2023-05-07T03:50:58;100378.28;;;15.70;74.51
79144;BME280;68551;47.484;19.092;2023-05-07T03:54:05;100369.56;;;15.78;74.42
79144;BME280;68551;47.484;19.092;2023-05-07T03:57:08;100359.63;;;15.72;74.67
79144;BME280;68551;47.484;19.092;2023-05-07T04:00:14;100372.56;;;15.76;74.74
79144;BME280;68551;47.484;19.092;2023-05-07T04:03:25;100379.72;;;15.77;74.76
79144;BME280;68551;47.484;19.092;2023-05-07T04:06:30;100384.91;;;15.74;74.50
79144;BME280;68551;47.484;19.092;2023-05-07T04:09:36;100380.44;;;15.68;74.59
79144;BME280;68551;47.484;19.092;2023-05-07T04:12:38;100392.63;;;15.77;74.33
79144;BME280;68551;47.484;19.092;2023-05-07T04:15:42;100399.22;;;15.76;74.24
79144;BME280;68551;47.484;19.092;2023-05-07T04:18:49;100401.38;;;15.74;74.16
79144;BME280;68551;47.484;19.092;2023-05-07T04:21:54;100397.88;;;15.78;73.71
79144;BME280;68551;47.484;19.092;2023-05-07T04:25:06;100421.25;;;15.81;73.97
79144;BME280;68551;47.484;19.092;2023-05-07T04:28:12;100411.97;;;15.87;73.20
79144;BME280;68551;47.484;19.092;2023-05-07T04:31:16;100419.38;;;15.86;72.28
79144;BME280;68551;47.484;19.092;2023-05-07T04:34:22;100407.53;;;15.81;71.98
79144;BME280;68551;47.484;19.092;2023-05-07T04:37:27;100415.53;;;15.87;72.24
79144;BME280;68551;47.484;19.092;2023-05-07T04:40:29;100413.63;;;15.88;71.59
79144;BME280;68551;47.484;19.092;2023-05-07T04:43:33;100420.91;;;15.99;71.80
79144;BME280;68551;47.484;19.092;2023-05-07T04:46:37;100419.88;;;16.05;71.44
79144;BME280;68551;47.484;19.092;2023-05-07T04:49:40;100408.34;;;16.08;71.58
79144;BME280;68551;47.484;19.092;2023-05-07T04:52:46;100402.63;;;16.15;70.77
79144;BME280;68551;47.484;19.092;2023-05-07T04:55:55;100425.75;;;16.46;69.92
79144;BME280;68551;47.484;19.092;2023-05-07T04:59:04;100422.75;;;16.79;68.19
79144;BME280;68551;47.484;19.092;2023-05-07T05:02:07;100413.63;;;17.16;67.14
79144;BME280;68551;47.484;19.092;2023-05-07T05:05:11;100416.03;;;17.54;66.07
79144;BME280;68551;47.484;19.092;2023-05-07T05:08:16;100412.34;;;17.96;65.48
79144;BME280;68551;47.484;19.092;2023-05-07T05:11:21;100424.47;;;18.15;64.49
79144;BME280;68551;47.484;19.092;2023-05-07T05:14:24;100418.44;;;18.23;63.59
79144;BME280;68551;47.484;19.092;2023-05-07T05:17:29;100422.56;;;18.26;64.09
79144;BME280;68551;47.484;19.092;2023-05-07T05:20:31;100422.84;;;18.19;63.71
79144;BME280;68551;47.484;19.092;2023-05-07T05:23:34;100420.66;;;18.47;63.42
79144;BME280;68551;47.484;19.092;2023-05-07T05:26:37;100425.09;;;18.83;61.99
79144;BME280;68551;47.484;19.092;2023-05-07T05:29:45;100416.19;;;19.22;61.29
79144;BME280;68551;47.484;19.092;2023-05-07T05:32:47;100426.41;;;19.11;60.70
79144;BME280;68551;47.484;19.092;2023-05-07T05:35:49;100422.19;;;19.39;59.60
79144;BME280;68551;47.484;19.092;2023-05-07T05:38:55;100421.56;;;19.67;58.45
79144;BME280;68551;47.484;19.092;2023-05-07T05:41:57;100419.34;;;19.69;58.29
79144;BME280;68551;47.484;19.092;2023-05-07T05:45:05;100408.84;;;19.71;57.63
79144;BME280;68551;47.484;19.092;2023-05-07T05:48:10;100419.00;;;19.86;57.64
79144;BME280;68551;47.484;19.092;2023-05-07T05:51:16;100407.63;;;19.93;57.43
79144;BME280;68551;47.484;19.092;2023-05-07T05:54:24;100407.09;;;19.91;57.70
79144;BME280;68551;47.484;19.092;2023-05-07T05:57:27;100411.81;;;19.80;58.04
79144;BME280;68551;47.484;19.092;2023-05-07T06:00:31;100416.41;;;20.05;57.46
79144;BME280;68551;47.484;19.092;2023-05-07T06:03:40;100414.94;;;20.17;57.28
79144;BME280;68551;47.484;19.092;2023-05-07T06:06:48;100401.38;;;20.55;56.57
79144;BME280;68551;47.484;19.092;2023-05-07T06:09:51;100407.28;;;20.43;56.78
79144;BME280;68551;47.484;19.092;2023-05-07T06:12:54;100393.22;;;20.69;55.73
79144;BME280;68551;47.484;19.092;2023-05-07T06:16:03;100407.03;;;21.32;54.36
79144;BME280;68551;47.484;19.092;2023-05-07T06:19:08;100399.91;;;21.68;52.48
79144;BME280;68551;47.484;19.092;2023-05-07T06:22:14;100411.81;;;22.30;51.15
79144;BME280;68551;47.484;19.092;2023-05-07T06:25:17;100406.75;;;22.32;49.71
79144;BME280;68551;47.484;19.092;2023-05-07T06:28:25;100408.13;;;22.86;48.67
79144;BME280;68551;47.484;19.092;2023-05-07T06:31:30;100421.34;;;23.08;48.17
79144;BME280;68551;47.484;19.092;2023-05-07T06:34:40;100405.13;;;23.28;46.65
79144;BME280;68551;47.484;19.092;2023-05-07T06:37:44;100410.25;;;23.76;46.45
79144;BME280;68551;47.484;19.092;2023-05-07T06:40:54;100408.16;;;23.95;45.56
79144;BME280;68551;47.484;19.092;2023-05-07T06:43:58;100409.22;;;24.35;45.19
79144;BME280;68551;47.484;19.092;2023-05-07T06:47:16;100414.47;;;24.82;44.42
79144;BME280;68551;47.484;19.092;2023-05-07T06:50:23;100413.81;;;24.85;43.14
79144;BME280;68551;47.484;19.092;2023-05-07T06:53:30;100409.53;;;24.79;41.77
79144;BME280;68551;47.484;19.092;2023-05-07T06:56:38;100403.16;;;24.56;43.00
79144;BME280;68551;47.484;19.092;2023-05-07T06:59:41;100403.66;;;24.22;42.21
79144;BME280;68551;47.484;19.092;2023-05-07T07:02:46;100405.94;;;24.56;42.29
79144;BME280;68551;47.484;19.092;2023-05-07T07:05:54;100406.09;;;25.04;40.78
79144;BME280;68551;47.484;19.092;2023-05-07T07:08:59;100409.34;;;25.37;40.22
79144;BME280;68551;47.484;19.092;2023-05-07T07:12:02;100413.44;;;25.31;40.28
79144;BME280;68551;47.484;19.092;2023-05-07T07:15:06;100414.97;;;24.61;41.19
79144;BME280;68551;47.484;19.092;2023-05-07T07:18:14;100420.09;;;24.10;42.11
79144;BME280;68551;47.484;19.092;2023-05-07T07:21:17;100419.91;;;23.92;42.75
79144;BME280;68551;47.484;19.092;2023-05-07T07:24:20;100422.94;;;23.82;43.33
79144;BME280;68551;47.484;19.092;2023-05-07T07:27:30;100425.28;;;23.48;44.43
79144;BME280;68551;47.484;19.092;2023-05-07T07:30:35;100433.66;;;23.75;43.75
79144;BME280;68551;47.484;19.092;2023-05-07T07:33:37;100440.47;;;23.69;44.19
79144;BME280;68551;47.484;19.092;2023-05-07T07:36:42;100434.47;;;23.76;43.45
79144;BME280;68551;47.484;19.092;2023-05-07T07:39:51;100426.56;;;24.77;42.02
79144;BME280;68551;47.484;19.092;2023-05-07T07:42:56;100422.84;;;25.92;40.01
79144;BME280;68551;47.484;19.092;2023-05-07T07:46:03;100440.44;;;27.04;37.64
79144;BME280;68551;47.484;19.092;2023-05-07T07:49:07;100434.22;;;27.45;36.95
79144;BME280;68551;47.484;19.092;2023-05-07T07:52:10;100429.19;;;27.98;35.74
79144;BME280;68551;47.484;19.092;2023-05-07T07:55:19;100432.53;;;28.12;35.08
79144;BME280;68551;47.484;19.092;2023-05-07T07:58:27;100438.94;;;28.21;34.66
79144;BME280;68551;47.484;19.092;2023-05-07T08:01:30;100427.09;;;27.57;35.85
79144;BME280;68551;47.484;19.092;2023-05-07T08:04:34;100441.28;;;26.96;36.11
79144;BME280;68551;47.484;19.092;2023-05-07T08:07:39;100438.53;;;26.36;37.68
79144;BME280;68551;47.484;19.092;2023-05-07T08:10:45;100437.06;;;25.64;38.75
79144;BME280;68551;47.484;19.092;2023-05-07T08:13:57;100436.13;;;25.38;40.34
79144;BME280;68551;47.484;19.092;2023-05-07T08:17:00;100441.69;;;25.07;39.82
79144;BME280;68551;47.484;19.092;2023-05-07T08:20:07;100441.06;;;24.65;41.27
79144;BME280;68551;47.484;19.092;2023-05-07T08:23:15;100437.31;;;24.48;41.55
79144;BME280;68551;47.484;19.092;2023-05-07T08:26:19;100440.34;;;24.37;40.90
79144;BME280;68551;47.484;19.092;2023-05-07T08:29:22;100440.91;;;24.26;41.04
79144;BME280;68551;47.484;19.092;2023-05-07T08:32:27;100426.63;;;23.91;41.12
79144;BME280;68551;47.484;19.092;2023-05-07T08:35:34;100415.31;;;23.74;41.75
79144;BME280;68551;47.484;19.092;2023-05-07T08:38:38;100431.97;;;23.47;43.46
79144;BME280;68551;47.484;19.092;2023-05-07T08:41:44;100429.31;;;23.42;44.21
79144;BME280;68551;47.484;19.092;2023-05-07T08:44:50;100428.84;;;23.53;44.65
79144;BME280;68551;47.484;19.092;2023-05-07T08:48:02;100425.22;;;23.53;44.31
79144;BME280;68551;47.484;19.092;2023-05-07T08:51:15;100422.13;;;23.54;44.44
79144;BME280;68551;47.484;19.092;2023-05-07T08:54:18;100437.00;;;24.27;44.41
79144;BME280;68551;47.484;19.092;2023-05-07T08:57:22;100430.28;;;24.50;43.66
79144;BME280;68551;47.484;19.092;2023-05-07T09:00:32;100434.69;;;24.29;43.21
79144;BME280;68551;47.484;19.092;2023-05-07T09:03:37;100431.75;;;24.12;44.25
79144;BME280;68551;47.484;19.092;2023-05-07T09:06:40;100427.22;;;24.02;44.78
79144;BME280;68551;47.484;19.092;2023-05-07T09:09:50;100425.03;;;24.13;45.00
79144;BME280;68551;47.484;19.092;2023-05-07T09:12:55;100427.53;;;24.00;45.29
79144;BME280;68551;47.484;19.092;2023-05-07T09:16:09;100431.19;;;24.37;45.83
79144;BME280;68551;47.484;19.092;2023-05-07T09:19:12;100431.00;;;24.20;46.38
79144;BME280;68551;47.484;19.092;2023-05-07T09:22:21;100431.19;;;24.37;46.14
79144;BME280;68551;47.484;19.092;2023-05-07T09:25:37;100431.81;;;24.79;43.06
79144;BME280;68551;47.484;19.092;2023-05-07T09:28:47;100417.22;;;25.04;43.04
79144;BME280;68551;47.484;19.092;2023-05-07T09:31:50;100428.09;;;25.14;43.26
79144;BME280;68551;47.484;19.092;2023-05-07T09:34:53;100417.72;;;25.85;41.40
79144;BME280;68551;47.484;19.092;2023-05-07T09:38:00;100420.88;;;26.01;41.63
79144;BME280;68551;47.484;19.092;2023-05-07T09:41:12;100422.22;;;26.72;40.34
79144;BME280;68551;47.484;19.092;2023-05-07T09:44:31;100423.50;;;27.01;34.71
79144;BME280;68551;47.484;19.092;2023-05-07T09:47:37;100417.38;;;27.16;33.60
79144;BME280;68551;47.484;19.092;2023-05-07T09:50:48;100416.38;;;27.21;33.88
79144;BME280;68551;47.484;19.092;2023-05-07T09:53:56;100422.34;;;25.81;34.56
79144;BME280;68551;47.484;19.092;2023-05-07T09:57:01;100424.84;;;25.52;34.67
79144;BME280;68551;47.484;19.092;2023-05-07T10:00:08;100423.44;;;25.32;37.75
79144;BME280;68551;47.484;19.092;2023-05-07T10:03:24;100434.41;;;25.28;38.72
79144;BME280;68551;47.484;19.092;2023-05-07T10:06:35;100437.25;;;25.06;38.75
79144;BME280;68551;47.484;19.092;2023-05-07T10:09:41;100433.97;;;24.82;38.91
79144;BME280;68551;47.484;19.092;2023-05-07T10:12:54;100434.22;;;24.49;41.63
79144;BME280;68551;47.484;19.092;2023-05-07T10:16:04;100425.28;;;24.38;44.15
79144;BME280;68551;47.484;19.092;2023-05-07T10:19:14;100440.59;;;24.27;45.35
79144;BME280;68551;47.484;19.092;2023-05-07T10:22:25;100432.75;;;24.16;45.60
79144;BME280;68551;47.484;19.092;2023-05-07T10:25:31;100427.97;;;23.94;46.54
79144;BME280;68551;47.484;19.092;2023-05-07T10:28:44;100434.47;;;23.62;46.87
79144;BME280;68551;47.484;19.092;2023-05-07T10:31:55;100437.47;;;23.52;47.32
79144;BME280;68551;47.484;19.092;2023-05-07T10:35:03;100432.44;;;23.54;47.47
79144;BME280;68551;47.484;19.092;2023-05-07T10:38:10;100434.16;;;23.50;47.81
79144;BME280;68551;47.484;19.092;2023-05-07T10:41:15;100432.91;;;23.28;47.89
79144;BME280;68551;47.484;19.092;2023-05-07T10:44:28;100425.59;;;23.32;48.09
79144;BME280;68551;47.484;19.092;2023-05-07T10:48:15;100434.16;;;23.50;46.90
79144;BME280;68551;47.484;19.092;2023-05-07T10:51:39;100426.09;;;23.48;46.20
79144;BME280;68551;47.484;19.092;2023-05-07T10:58:31;100428.38;;;23.74;45.00
79144;BME280;68551;47.484;19.092;2023-05-07T11:02:02;100422.19;;;23.90;44.70
79144;BME280;68551;47.484;19.092;2023-05-07T11:05:22;100433.78;;;24.20;44.08
79144;BME280;68551;47.484;19.092;2023-05-07T11:12:04;100410.03;;;24.58;44.56
79144;BME280;68551;47.484;19.092;2023-05-07T11:15:37;100420.50;;;24.53;44.79
79144;BME280;68551;47.484;19.092;2023-05-07T11:18:53;100423.31;;;24.61;43.34
79144;BME280;68551;47.484;19.092;2023-05-07T11:26:03;100411.41;;;24.47;40.85
79144;BME280;68551;47.484;19.092;2023-05-07T11:29:12;100411.28;;;24.30;41.20
79144;BME280;68551;47.484;19.092;2023-05-07T11:32:23;100419.03;;;24.55;40.83
79144;BME280;68551;47.484;19.092;2023-05-07T11:35:29;100421.16;;;24.58;40.79
79144;BME280;68551;47.484;19.092;2023-05-07T11:38:35;100408.53;;;24.52;40.47
79144;BME280;68551;47.484;19.092;2023-05-07T11:41:38;100412.66;;;24.55;39.05
79144;BME280;68551;47.484;19.092;2023-05-07T11:44:44;100411.78;;;24.77;38.96
79144;BME280;68551;47.484;19.092;2023-05-07T11:47:48;100407.44;;;24.62;39.17
79144;BME280;68551;47.484;19.092;2023-05-07T11:50:51;100405.53;;;24.49;38.88
79144;BME280;68551;47.484;19.092;2023-05-07T11:54:03;100410.03;;;24.58;39.46
79144;BME280;68551;47.484;19.092;2023-05-07T11:57:10;100394.78;;;24.56;39.36
79144;BME280;68551;47.484;19.092;2023-05-07T12:00:16;100403.47;;;24.54;39.33
79144;BME280;68551;47.484;19.092;2023-05-07T12:03:21;100406.50;;;24.66;38.52
79144;BME280;68551;47.484;19.092;2023-05-07T12:06:26;100406.06;;;24.51;38.06
79144;BME280;68551;47.484;19.092;2023-05-07T12:09:38;100393.63;;;24.34;38.02
79144;BME280;68551;47.484;19.092;2023-05-07T12:12:45;100397.75;;;24.37;38.92
79144;BME280;68551;47.484;19.092;2023-05-07T12:15:52;100395.06;;;24.32;38.52
79144;BME280;68551;47.484;19.092;2023-05-07T12:18:54;100394.28;;;24.18;38.42
79144;BME280;68551;47.484;19.092;2023-05-07T12:21:57;100391.81;;;24.16;38.14
79144;BME280;68551;47.484;19.092;2023-05-07T12:25:00;100390.09;;;24.07;37.90
79144;BME280;68551;47.484;19.092;2023-05-07T12:28:05;100395.50;;;23.89;39.05
79144;BME280;68551;47.484;19.092;2023-05-07T12:31:08;100393.63;;;23.98;38.73
79144;BME280;68551;47.484;19.092;2023-05-07T12:34:11;100391.09;;;24.24;38.55
79144;BME280;68551;47.484;19.092;2023-05-07T12:37:15;100380.28;;;24.23;38.80
79144;BME280;68551;47.484;19.092;2023-05-07T12:40:20;100388.88;;;24.35;38.47
79144;BME280;68551;47.484;19.092;2023-05-07T12:43:29;100379.00;;;24.29;38.64
79144;BME280;68551;47.484;19.092;2023-05-07T12:46:38;100382.88;;;24.42;38.88
79144;BME280;68551;47.484;19.092;2023-05-07T12:49:43;100380.16;;;24.50;37.82
79144;BME280;68551;47.484;19.092;2023-05-07T12:52:48;100380.28;;;24.45;37.63
79144;BME280;68551;47.484;19.092;2023-05-07T12:55:55;100378.19;;;24.51;37.44
79144;BME280;68551;47.484;19.092;2023-05-07T12:58:58;100379.88;;;24.60;37.12
79144;BME280;68551;47.484;19.092;2023-05-07T13:02:04;100371.41;;;24.65;37.20
79144;BME280;68551;47.484;19.092;2023-05-07T13:05:09;100371.19;;;24.84;36.11
79144;BME280;68551;47.484;19.092;2023-05-07T13:08:32;100363.25;;;24.69;35.68
79144;BME280;68551;47.484;19.092;2023-05-07T13:11:40;100361.09;;;24.66;36.11
79144;BME280;68551;47.484;19.092;2023-05-07T13:14:45;100359.66;;;24.77;36.24
79144;BME280;68551;47.484;19.092;2023-05-07T13:17:49;100358.72;;;24.82;36.28
79144;BME280;68551;47.484;19.092;2023-05-07T13:20:57;100361.53;;;24.59;36.71
79144;BME280;68551;47.484;19.092;2023-05-07T13:24:02;100361.53;;;24.59;37.15
79144;BME280;68551;47.484;19.092;2023-05-07T13:27:05;100351.91;;;24.65;37.09
79144;BME280;68551;47.484;19.092;2023-05-07T13:30:07;100353.88;;;24.65;36.47
79144;BME280;68551;47.484;19.092;2023-05-07T13:33:12;100353.94;;;24.51;36.71
79144;BME280;68551;47.484;19.092;2023-05-07T13:36:16;100351.22;;;24.37;36.29
79144;BME280;68551;47.484;19.092;2023-05-07T13:39:19;100349.38;;;24.33;36.23
79144;BME280;68551;47.484;19.092;2023-05-07T13:42:21;100331.69;;;24.15;36.25
79144;BME280;68551;47.484;19.092;2023-05-07T13:45:24;100344.66;;;24.20;36.17
79144;BME280;68551;47.484;19.092;2023-05-07T13:48:28;100336.00;;;24.21;36.44
79144;BME280;68551;47.484;19.092;2023-05-07T13:51:35;100337.88;;;24.26;36.45
79144;BME280;68551;47.484;19.092;2023-05-07T13:54:40;100345.56;;;24.29;36.48
79144;BME280;68551;47.484;19.092;2023-05-07T13:57:53;100342.66;;;24.12;35.78
79144;BME280;68551;47.484;19.092;2023-05-07T14:00:56;100334.31;;;24.12;36.79
79144;BME280;68551;47.484;19.092;2023-05-07T14:03:59;100330.84;;;24.15;37.74
79144;BME280;68551;47.484;19.092;2023-05-07T14:07:02;100325.44;;;24.10;37.76
79144;BME280;68551;47.484;19.092;2023-05-07T14:10:04;100338.22;;;24.11;38.32
79144;BME280;68551;47.484;19.092;2023-05-07T14:13:13;100340.22;;;24.19;38.34
79144;BME280;68551;47.484;19.092;2023-05-07T14:16:18;100328.94;;;24.01;37.74
79144;BME280;68551;47.484;19.092;2023-05-07T14:19:23;100334.41;;;24.07;37.57
79144;BME280;68551;47.484;19.092;2023-05-07T14:22:28;100339.50;;;23.91;37.68
79144;BME280;68551;47.484;19.092;2023-05-07T14:25:33;100342.00;;;23.92;36.12
79144;BME280;68551;47.484;19.092;2023-05-07T14:28:35;100346.16;;;23.81;36.30
79144;BME280;68551;47.484;19.092;2023-05-07T14:31:37;100349.03;;;23.76;37.16
79144;BME280;68551;47.484;19.092;2023-05-07T14:34:42;100341.09;;;23.83;37.21
79144;BME280;68551;47.484;19.092;2023-05-07T14:37:44;100349.66;;;23.73;38.21
79144;BME280;68551;47.484;19.092;2023-05-07T14:40:49;100357.19;;;23.73;37.73
79144;BME280;68551;47.484;19.092;2023-05-07T14:43:54;100356.59;;;23.62;37.50
79144;BME280;68551;47.484;19.092;2023-05-07T14:47:03;100358.38;;;23.58;37.99
79144;BME280;68551;47.484;19.092;2023-05-07T14:50:11;100357.72;;;23.61;37.77
79144;BME280;68551;47.484;19.092;2023-05-07T14:53:18;100352.44;;;23.46;38.95
79144;BME280;68551;47.484;19.092;2023-05-07T14:56:23;100367.94;;;23.52;39.11
79144;BME280;68551;47.484;19.092;2023-05-07T14:59:28;100359.66;;;23.47;38.76
79144;BME280;68551;47.484;19.092;2023-05-07T15:02:32;100354.94;;;23.33;38.68
79144;BME280;68551;47.484;19.092;2023-05-07T15:05:37;100360.63;;;23.28;38.46
79144;BME280;68551;47.484;19.092;2023-05-07T15:08:39;100348.47;;;23.24;38.77
79144;BME280;68551;47.484;19.092;2023-05-07T15:11:44;100350.81;;;23.17;39.58
79144;BME280;68551;47.484;19.092;2023-05-07T15:14:47;100366.88;;;23.20;40.29
79144;BME280;68551;47.484;19.092;2023-05-07T15:17:49;100362.06;;;23.12;40.59
79144;BME280;68551;47.484;19.092;2023-05-07T15:20:51;100368.84;;;23.06;40.90
79144;BME280;68551;47.484;19.092;2023-05-07T15:23:54;100377.47;;;23.05;41.19
79144;BME280;68551;47.484;19.092;2023-05-07T15:26:57;100380.75;;;22.93;41.14
79144;BME280;68551;47.484;19.092;2023-05-07T15:30:00;100372.69;;;22.78;41.54
79144;BME280;68551;47.484;19.092;2023-05-07T15:33:07;100368.59;;;22.89;41.38
79144;BME280;68551;47.484;19.092;2023-05-07T15:36:09;100371.38;;;22.89;40.72
79144;BME280;68551;47.484;19.092;2023-05-07T15:39:14;100368.19;;;22.82;41.26
79144;BME280;68551;47.484;19.092;2023-05-07T15:42:19;100362.03;;;22.85;40.70
79144;BME280;68551;47.484;19.092;2023-05-07T15:45:23;100368.94;;;22.87;40.70
79144;BME280;68551;47.484;19.092;2023-05-07T15:48:27;100368.34;;;22.72;40.54
79144;BME280;68551;47.484;19.092;2023-05-07T15:51:30;100362.56;;;22.68;39.81
79144;BME280;68551;47.484;19.092;2023-05-07T15:54:35;100369.25;;;22.67;39.57
79144;BME280;68551;47.484;19.092;2023-05-07T15:57:42;100367.69;;;22.61;39.73
79144;BME280;68551;47.484;19.092;2023-05-07T16:00:44;100374.50;;;22.69;39.73
79144;BME280;68551;47.484;19.092;2023-05-07T16:03:51;100366.47;;;22.67;39.25
79144;BME280;68551;47.484;19.092;2023-05-07T16:06:54;100376.34;;;22.59;39.06
79144;BME280;68551;47.484;19.092;2023-05-07T16:09:57;100369.09;;;22.45;39.19
79144;BME280;68551;47.484;19.092;2023-05-07T16:13:05;100363.44;;;22.50;39.32